createdAt,value
2023-05-02T00:00:05.719Z,36.71
2023-05-02T00:01:05.689Z,36.70
2023-05-02T00:02:05.794Z,36.72
2023-05-02T00:03:05.757Z,36.68
2023-05-02T00:04:05.821Z,36.69
2023-05-02T00:05:05.698Z,36.70
2023-05-02T00:06:05.951Z,36.70
2023-05-02T00:07:05.688Z,36.70
2023-05-02T00:08:05.670Z,36.70
2023-05-02T00:09:05.708Z,36.71
2023-05-02T00:10:05.677Z,36.71
2023-05-02T00:11:05.686Z,36.69
2023-05-02T00:12:05.648Z,36.71
2023-05-02T00:13:05.690Z,36.71
2023-05-02T00:14:05.679Z,36.70
2023-05-02T00:15:05.647Z,36.70
2023-05-02T00:16:05.646Z,36.71
2023-05-02T00:17:05.674Z,36.71
2023-05-02T00:18:05.690Z,36.70
2023-05-02T00:19:05.631Z,36.70
2023-05-02T00:20:05.621Z,36.68
2023-05-02T00:21:05.621Z,36.68
2023-05-02T00:22:05.633Z,36.69
2023-05-02T00:23:05.650Z,36.68
2023-05-02T00:24:05.611Z,36.72
2023-05-02T00:25:05.613Z,36.68
2023-05-02T00:26:05.967Z,36.68
2023-05-02T00:27:05.572Z,36.67
2023-05-02T00:28:05.613Z,36.68
2023-05-02T00:29:05.590Z,36.68
2023-05-02T00:30:05.586Z,36.68
2023-05-02T00:31:06.017Z,36.67
2023-05-02T00:32:05.589Z,36.68
2023-05-02T00:33:05.655Z,36.70
2023-05-02T00:34:05.581Z,36.69
2023-05-02T00:35:05.582Z,36.71
2023-05-02T00:36:05.957Z,36.68
2023-05-02T00:37:05.600Z,36.70
2023-05-02T00:38:05.564Z,36.67
2023-05-02T00:39:05.575Z,36.70
2023-05-02T00:40:05.595Z,36.69
2023-05-02T00:41:05.962Z,36.69
2023-05-02T00:42:05.552Z,36.69
2023-05-02T00:43:05.595Z,36.69
2023-05-02T00:44:05.585Z,36.67
2023-05-02T00:45:05.551Z,36.67
2023-05-02T00:46:05.992Z,36.68
2023-05-02T00:47:05.576Z,36.69
2023-05-02T00:48:05.558Z,36.70
2023-05-02T00:49:05.533Z,36.68
2023-05-02T00:50:05.527Z,36.69
2023-05-02T00:51:05.978Z,36.67
2023-05-02T00:52:05.539Z,36.68
2023-05-02T00:53:05.559Z,36.71
2023-05-02T00:54:05.546Z,36.70
2023-05-02T00:55:05.554Z,36.66
2023-05-02T00:56:05.991Z,36.71
2023-05-02T00:57:05.528Z,36.67
2023-05-02T00:58:05.537Z,36.67
2023-05-02T00:59:05.514Z,36.66
2023-05-02T01:00:05.518Z,36.67
2023-05-02T01:01:05.528Z,36.68
2023-05-02T01:02:05.745Z,36.66
2023-05-02T01:03:05.669Z,36.67
2023-05-02T01:04:05.669Z,36.63
2023-05-02T01:05:05.561Z,36.65
2023-05-02T01:06:06.005Z,36.66
2023-05-02T01:07:05.570Z,36.67
2023-05-02T01:08:05.524Z,36.68
2023-05-02T01:09:05.560Z,36.66
2023-05-02T01:10:05.563Z,36.66
2023-05-02T01:11:05.996Z,36.64
2023-05-02T01:12:05.532Z,36.68
2023-05-02T01:13:05.589Z,36.69
2023-05-02T01:14:05.568Z,36.68
2023-05-02T01:15:05.556Z,36.65
2023-05-02T01:16:06.145Z,36.69
2023-05-02T01:17:05.574Z,36.67
2023-05-02T01:18:05.551Z,36.69
2023-05-02T01:19:05.524Z,36.67
2023-05-02T01:20:05.576Z,36.64
2023-05-02T01:21:05.976Z,36.68
2023-05-02T01:22:05.582Z,36.69
2023-05-02T01:23:05.541Z,36.66
2023-05-02T01:24:05.542Z,36.69
2023-05-02T01:25:05.548Z,36.67
2023-05-02T01:26:05.972Z,36.65
2023-05-02T01:27:05.548Z,36.67
2023-05-02T01:28:05.553Z,36.69
2023-05-02T01:29:05.558Z,36.66
2023-05-02T01:30:05.513Z,36.67
2023-05-02T01:31:06.019Z,36.68
2023-05-02T01:32:05.602Z,36.68
2023-05-02T01:33:05.629Z,36.66
2023-05-02T01:34:05.544Z,36.67
2023-05-02T01:35:05.546Z,36.67
2023-05-02T01:36:05.553Z,36.66
2023-05-02T01:37:05.560Z,36.67
2023-05-02T01:38:05.559Z,36.67
2023-05-02T01:39:05.550Z,36.67
2023-05-02T01:40:05.600Z,36.68
2023-05-02T01:41:05.986Z,36.66
2023-05-02T01:42:05.568Z,36.68
2023-05-02T01:43:05.552Z,36.66
2023-05-02T01:44:05.581Z,36.65
2023-05-02T01:45:05.556Z,36.65
2023-05-02T01:46:05.569Z,36.69
2023-05-02T01:47:05.589Z,36.66
2023-05-02T01:48:05.590Z,36.67
2023-05-02T01:49:05.571Z,36.65
2023-05-02T01:50:05.569Z,36.66
2023-05-02T01:51:05.577Z,36.68
2023-05-02T01:52:05.588Z,36.66
2023-05-02T01:53:05.544Z,36.65
2023-05-02T01:54:05.560Z,36.66
2023-05-02T01:55:05.561Z,36.67
2023-05-02T01:56:05.988Z,36.67
2023-05-02T01:57:05.576Z,36.66
2023-05-02T01:58:05.586Z,36.66
2023-05-02T01:59:05.617Z,36.66
2023-05-02T02:00:05.601Z,36.66
2023-05-02T02:01:05.989Z,36.67
2023-05-02T02:02:05.617Z,36.66
2023-05-02T02:03:05.652Z,36.67
2023-05-02T02:04:05.634Z,36.66
2023-05-02T02:05:05.624Z,36.67
2023-05-02T02:06:06.019Z,36.66
2023-05-02T02:07:05.640Z,36.68
2023-05-02T02:08:05.628Z,36.66
2023-05-02T02:09:05.660Z,36.67
2023-05-02T02:10:05.686Z,36.68
2023-05-02T02:11:05.658Z,36.67
2023-05-02T02:12:05.619Z,36.67
2023-05-02T02:13:05.630Z,36.66
2023-05-02T02:14:05.677Z,36.65
2023-05-02T02:15:05.627Z,36.66
2023-05-02T02:16:05.678Z,36.65
2023-05-02T02:17:05.746Z,36.67
2023-05-02T02:18:05.694Z,36.66
2023-05-02T02:19:05.675Z,36.65
2023-05-02T02:20:05.644Z,36.65
2023-05-02T02:21:05.965Z,36.65
2023-05-02T02:22:05.678Z,36.65
2023-05-02T02:23:05.645Z,36.65
2023-05-02T02:24:05.681Z,36.64
2023-05-02T02:25:05.692Z,36.64
2023-05-02T02:26:06.487Z,36.67
2023-05-02T02:27:05.675Z,36.65
2023-05-02T02:28:05.663Z,36.65
2023-05-02T02:29:05.660Z,36.65
2023-05-02T02:30:05.676Z,36.64
2023-05-02T02:31:05.752Z,36.65
2023-05-02T02:32:05.663Z,36.65
2023-05-02T02:33:05.723Z,36.65
2023-05-02T02:34:05.650Z,36.63
2023-05-02T02:35:05.678Z,36.65
2023-05-02T02:36:05.644Z,36.64
2023-05-02T02:37:05.674Z,36.65
2023-05-02T02:38:05.644Z,36.65
2023-05-02T02:39:05.655Z,36.67
2023-05-02T02:40:05.666Z,36.65
2023-05-02T02:41:05.653Z,36.64
2023-05-02T02:42:05.669Z,36.66
2023-05-02T02:43:05.653Z,36.68
2023-05-02T02:44:05.632Z,36.67
2023-05-02T02:45:05.647Z,36.67
2023-05-02T02:46:05.693Z,36.69
2023-05-02T02:47:05.663Z,36.66
2023-05-02T02:48:05.666Z,36.67
2023-05-02T02:49:05.654Z,36.67
2023-05-02T02:50:05.650Z,36.68
2023-05-02T02:51:05.653Z,36.66
2023-05-02T02:52:05.661Z,36.65
2023-05-02T02:53:05.647Z,36.67
2023-05-02T02:54:15.440Z,36.66
2023-05-02T02:55:06.676Z,36.64
2023-05-02T02:56:05.652Z,36.67
2023-05-02T02:57:05.630Z,36.66
2023-05-02T02:58:05.723Z,36.66
2023-05-02T02:59:05.625Z,36.63
2023-05-02T03:00:05.636Z,36.64
2023-05-02T03:01:05.622Z,36.65
2023-05-02T03:02:05.686Z,36.65
2023-05-02T03:03:05.615Z,36.65
2023-05-02T03:04:05.642Z,36.66
2023-05-02T03:05:05.623Z,36.64
2023-05-02T03:06:05.639Z,36.64
2023-05-02T03:07:05.988Z,36.63
2023-05-02T03:08:05.561Z,36.66
2023-05-02T03:09:05.581Z,36.65
2023-05-02T03:10:05.533Z,36.67
2023-05-02T03:11:05.551Z,36.65
2023-05-02T03:12:05.521Z,36.68
2023-05-02T03:13:05.523Z,36.66
2023-05-02T03:14:05.502Z,36.66
2023-05-02T03:15:05.502Z,36.65
2023-05-02T03:16:05.524Z,36.63
2023-05-02T03:17:05.485Z,36.65
2023-05-02T03:18:05.562Z,36.64
2023-05-02T03:19:05.504Z,36.65
2023-05-02T03:20:05.466Z,36.64
2023-05-02T03:21:05.482Z,36.63
2023-05-02T03:22:05.539Z,36.64
2023-05-02T03:23:05.460Z,36.67
2023-05-02T03:24:05.473Z,36.63
2023-05-02T03:25:05.446Z,36.62
2023-05-02T03:26:05.410Z,36.63
2023-05-02T03:27:05.431Z,36.66
2023-05-02T03:28:05.417Z,36.64
2023-05-02T03:29:05.415Z,36.65
2023-05-02T03:30:05.494Z,36.67
2023-05-02T03:31:05.492Z,36.66
2023-05-02T03:32:05.541Z,36.64
2023-05-02T03:33:05.466Z,36.64
2023-05-02T03:34:05.400Z,36.63
2023-05-02T03:35:05.407Z,36.64
2023-05-02T03:36:05.416Z,36.66
2023-05-02T03:37:05.425Z,36.67
2023-05-02T03:38:05.425Z,36.66
2023-05-02T03:39:05.440Z,36.68
2023-05-02T03:40:05.438Z,36.67
2023-05-02T03:41:05.464Z,36.66
2023-05-02T03:42:05.571Z,36.66
2023-05-02T03:43:05.466Z,36.67
2023-05-02T03:44:05.493Z,36.68
2023-05-02T03:45:05.478Z,36.67
2023-05-02T03:46:05.486Z,36.68
2023-05-02T03:47:05.660Z,36.66
2023-05-02T03:48:05.537Z,36.71
2023-05-02T03:49:05.509Z,36.67
2023-05-02T03:50:05.481Z,36.65
2023-05-02T03:51:05.534Z,36.65
2023-05-02T03:52:05.523Z,36.67
2023-05-02T03:53:05.494Z,36.67
2023-05-02T03:54:05.531Z,36.67
2023-05-02T03:55:05.514Z,36.66
2023-05-02T03:56:05.515Z,36.65
2023-05-02T03:57:05.521Z,36.64
2023-05-02T03:58:05.517Z,36.66
2023-05-02T03:59:05.540Z,36.66
2023-05-02T04:00:05.544Z,36.66
2023-05-02T04:01:05.558Z,36.64
2023-05-02T04:02:05.637Z,36.66
2023-05-02T04:03:05.580Z,36.67
2023-05-02T04:04:05.645Z,36.63
2023-05-02T04:05:05.592Z,36.65
2023-05-02T04:06:05.600Z,36.63
2023-05-02T04:07:05.559Z,36.66
2023-05-02T04:08:05.554Z,36.65
2023-05-02T04:09:05.588Z,36.64
2023-05-02T04:10:05.609Z,36.64
2023-05-02T04:11:05.590Z,36.64
2023-05-02T04:12:05.596Z,36.64
2023-05-02T04:13:05.579Z,36.66
2023-05-02T04:14:05.584Z,36.65
2023-05-02T04:15:05.570Z,36.65
2023-05-02T04:16:05.588Z,36.68
2023-05-02T04:17:06.076Z,36.66
2023-05-02T04:18:05.624Z,36.64
2023-05-02T04:19:05.619Z,36.66
2023-05-02T04:20:05.932Z,36.63
2023-05-02T04:21:05.628Z,36.65
2023-05-02T04:22:05.606Z,36.63
2023-05-02T04:23:05.665Z,36.64
2023-05-02T04:24:05.643Z,36.64
2023-05-02T04:25:05.610Z,36.63
2023-05-02T04:26:05.629Z,36.66
2023-05-02T04:27:06.079Z,36.67
2023-05-02T04:28:05.616Z,36.66
2023-05-02T04:29:05.645Z,36.66
2023-05-02T04:30:05.650Z,36.68
2023-05-02T04:31:05.742Z,36.66
2023-05-02T04:32:05.683Z,36.67
2023-05-02T04:33:05.695Z,36.68
2023-05-02T04:34:05.669Z,36.69
2023-05-02T04:35:05.666Z,36.70
2023-05-02T04:36:05.734Z,36.69
2023-05-02T04:37:05.712Z,36.67
2023-05-02T04:38:05.744Z,36.68
2023-05-02T04:39:05.710Z,36.67
2023-05-02T04:40:05.717Z,36.67
2023-05-02T04:41:09.272Z,36.69
2023-05-02T04:42:05.690Z,36.70
2023-05-02T04:43:05.701Z,36.69
2023-05-02T04:44:05.733Z,36.69
2023-05-02T04:45:05.686Z,36.69
2023-05-02T04:46:05.734Z,36.66
2023-05-02T04:47:05.698Z,36.67
2023-05-02T04:48:05.685Z,36.68
2023-05-02T04:49:05.673Z,36.70
2023-05-02T04:50:05.653Z,36.69
2023-05-02T04:51:05.673Z,36.70
2023-05-02T04:52:05.651Z,36.68
2023-05-02T04:53:05.656Z,36.70
2023-05-02T04:54:05.656Z,36.69
2023-05-02T04:55:05.660Z,36.73
2023-05-02T04:56:05.604Z,36.71
2023-05-02T04:57:05.619Z,36.72
2023-05-02T04:58:05.604Z,36.73
2023-05-02T04:59:05.575Z,36.71
2023-05-02T05:00:05.585Z,36.73
2023-05-02T05:01:05.582Z,36.71
2023-05-02T05:02:05.699Z,36.73
2023-05-02T05:03:05.644Z,36.71
2023-05-02T05:04:05.649Z,36.70
2023-05-02T05:05:05.574Z,36.70
2023-05-02T05:06:05.605Z,36.70
2023-05-02T05:07:05.526Z,36.73
2023-05-02T05:08:05.533Z,36.74
2023-05-02T05:09:05.505Z,36.72
2023-05-02T05:10:05.505Z,36.70
2023-05-02T05:11:05.511Z,36.70
2023-05-02T05:12:05.592Z,36.71
2023-05-02T05:13:05.495Z,36.72
2023-05-02T05:14:05.489Z,36.70
2023-05-02T05:15:05.488Z,36.71
2023-05-02T05:16:05.534Z,36.71
2023-05-02T05:17:05.473Z,36.71
2023-05-02T05:18:05.502Z,36.73
2023-05-02T05:19:05.463Z,36.75
2023-05-02T05:20:06.338Z,36.75
2023-05-02T05:21:05.458Z,36.72
2023-05-02T05:22:05.446Z,36.73
2023-05-02T05:23:05.423Z,36.73
2023-05-02T05:24:05.404Z,36.74
2023-05-02T05:25:05.415Z,36.74
2023-05-02T05:26:05.408Z,36.74
2023-05-02T05:27:05.398Z,36.75
2023-05-02T05:28:05.397Z,36.73
2023-05-02T05:29:05.345Z,36.71
2023-05-02T05:30:05.350Z,36.72
2023-05-02T05:31:05.414Z,36.73
2023-05-02T05:32:05.416Z,36.73
2023-05-02T05:33:05.364Z,36.73
2023-05-02T05:34:05.388Z,36.73
2023-05-02T05:35:05.340Z,36.73
2023-05-02T05:36:05.349Z,36.72
2023-05-02T05:37:05.334Z,36.74
2023-05-02T05:38:05.317Z,36.72
2023-05-02T05:39:05.309Z,36.74
2023-05-02T05:40:05.315Z,36.73
2023-05-02T05:41:05.270Z,36.73
2023-05-02T05:42:05.285Z,36.70
2023-05-02T05:43:05.555Z,36.71
2023-05-02T05:44:05.245Z,36.71
2023-05-02T05:45:05.296Z,36.69
2023-05-02T05:46:05.273Z,36.69
2023-05-02T05:47:05.310Z,36.68
2023-05-02T05:48:05.325Z,36.69
2023-05-02T05:49:05.256Z,36.72
2023-05-02T05:50:05.219Z,36.69
2023-05-02T05:51:05.226Z,36.70
2023-05-02T05:52:05.236Z,36.70
2023-05-02T05:53:05.208Z,36.69
2023-05-02T05:54:05.194Z,36.72
2023-05-02T05:55:05.184Z,36.69
2023-05-02T05:56:05.190Z,36.70
2023-05-02T05:57:05.175Z,36.71
2023-05-02T05:58:05.178Z,36.70
2023-05-02T05:59:05.191Z,36.66
2023-05-02T06:00:05.158Z,36.71
2023-05-02T06:01:05.157Z,36.70
2023-05-02T06:02:05.650Z,36.69
2023-05-02T06:03:07.408Z,36.69
2023-05-02T06:04:05.242Z,36.70
2023-05-02T06:05:05.284Z,36.71
2023-05-02T06:06:05.123Z,36.67
2023-05-02T06:07:05.118Z,36.68
2023-05-02T06:08:05.126Z,36.68
2023-05-02T06:09:05.092Z,36.67
2023-05-02T06:10:05.104Z,36.69
2023-05-02T06:11:05.125Z,36.68
2023-05-02T06:12:05.068Z,36.71
2023-05-02T06:13:05.098Z,36.67
2023-05-02T06:14:05.066Z,36.68
2023-05-02T06:15:05.066Z,36.69
2023-05-02T06:16:05.087Z,36.67
2023-05-02T06:17:05.022Z,36.66
2023-05-02T06:18:05.066Z,36.65
2023-05-02T06:19:05.009Z,36.69
2023-05-02T06:20:05.027Z,36.69
2023-05-02T06:21:04.993Z,36.70
2023-05-02T06:22:04.995Z,36.68
2023-05-02T06:23:04.998Z,36.68
2023-05-02T06:24:04.986Z,36.69
2023-05-02T06:25:05.010Z,36.69
2023-05-02T06:26:04.974Z,36.68
2023-05-02T06:27:04.970Z,36.67
2023-05-02T06:28:05.007Z,36.65
2023-05-02T06:29:04.944Z,36.68
2023-05-02T06:30:04.974Z,36.69
2023-05-02T06:31:05.078Z,36.68
2023-05-02T06:32:04.965Z,36.68
2023-05-02T06:33:04.948Z,36.69
2023-05-02T06:34:04.960Z,36.68
2023-05-02T06:35:04.909Z,36.67
2023-05-02T06:36:04.893Z,36.67
2023-05-02T06:37:04.891Z,36.68
2023-05-02T06:38:04.886Z,36.68
2023-05-02T06:39:04.876Z,36.69
2023-05-02T06:40:04.899Z,36.70
2023-05-02T06:41:04.885Z,36.68
2023-05-02T06:42:04.865Z,36.66
2023-05-02T06:43:04.877Z,36.69
2023-05-02T06:44:04.986Z,36.67
2023-05-02T06:45:04.844Z,36.68
2023-05-02T06:46:04.846Z,36.69
2023-05-02T06:47:04.901Z,36.68
2023-05-02T06:48:04.844Z,36.70
2023-05-02T06:49:04.807Z,36.69
2023-05-02T06:50:04.876Z,36.69
2023-05-02T06:51:04.775Z,36.71
2023-05-02T06:52:04.766Z,36.70
2023-05-02T06:53:04.786Z,36.72
2023-05-02T06:54:04.785Z,36.69
2023-05-02T06:55:04.771Z,36.68
2023-05-02T06:56:04.754Z,36.69
2023-05-02T06:57:04.774Z,36.68
2023-05-02T06:58:04.750Z,36.67
2023-05-02T06:59:04.731Z,36.67
2023-05-02T07:00:04.732Z,36.70
2023-05-02T07:01:04.782Z,36.68
2023-05-02T07:02:05.515Z,36.68
2023-05-02T07:03:04.774Z,36.69
2023-05-02T07:04:04.812Z,36.69
2023-05-02T07:05:04.726Z,36.70
2023-05-02T07:06:04.759Z,36.69
2023-05-02T07:07:04.669Z,36.68
2023-05-02T07:08:04.680Z,36.71
2023-05-02T07:09:04.651Z,36.67
2023-05-02T07:10:04.651Z,36.70
2023-05-02T07:11:04.662Z,36.68
2023-05-02T07:12:06.650Z,36.71
2023-05-02T07:13:04.673Z,36.68
2023-05-02T07:14:04.663Z,36.69
2023-05-02T07:15:04.609Z,36.68
2023-05-02T07:16:04.686Z,36.68
2023-05-02T07:17:04.645Z,36.69
2023-05-02T07:18:04.647Z,36.71
2023-05-02T07:19:04.755Z,36.71
2023-05-02T07:20:04.815Z,36.71
2023-05-02T07:21:04.578Z,36.70
2023-05-02T07:22:04.586Z,36.71
2023-05-02T07:23:04.583Z,36.69
2023-05-02T07:24:04.578Z,36.72
2023-05-02T07:25:04.553Z,36.71
2023-05-02T07:26:06.245Z,36.71
2023-05-02T07:27:04.512Z,36.69
2023-05-02T07:28:04.610Z,36.70
2023-05-02T07:29:04.514Z,36.70
2023-05-02T07:30:04.515Z,36.71
2023-05-02T07:31:04.496Z,36.70
2023-05-02T07:32:04.529Z,36.72
2023-05-02T07:33:04.577Z,36.72
2023-05-02T07:34:04.479Z,36.72
2023-05-02T07:35:04.521Z,36.72
2023-05-02T07:36:04.503Z,36.75
2023-05-02T07:37:04.534Z,36.72
2023-05-02T07:38:04.548Z,36.73
2023-05-02T07:39:04.522Z,36.73
2023-05-02T07:40:04.822Z,36.75
2023-05-02T07:41:04.526Z,36.73
2023-05-02T07:42:04.502Z,36.76
2023-05-02T07:43:04.519Z,36.76
2023-05-02T07:44:04.502Z,36.76
2023-05-02T07:45:04.531Z,36.75
2023-05-02T07:46:04.635Z,36.76
2023-05-02T07:47:04.555Z,36.72
2023-05-02T07:48:04.623Z,36.73
2023-05-02T07:49:04.572Z,36.74
2023-05-02T07:50:04.703Z,37.51
2023-05-02T07:51:04.535Z,37.24
2023-05-02T07:52:04.556Z,37.44
2023-05-02T07:53:04.547Z,37.39
2023-05-02T07:54:04.531Z,37.57
2023-05-02T07:55:04.580Z,37.95
2023-05-02T07:56:04.622Z,38.23
2023-05-02T07:57:04.667Z,38.55
2023-05-02T07:58:04.684Z,38.99
2023-05-02T07:59:05.660Z,39.38
2023-05-02T08:00:05.009Z,39.41
2023-05-02T08:01:04.885Z,39.51
2023-05-02T08:02:05.007Z,39.75
2023-05-02T08:03:05.007Z,39.80
2023-05-02T08:04:05.166Z,39.86
2023-05-02T08:05:05.055Z,40.04
2023-05-02T08:06:05.170Z,40.12
2023-05-02T08:07:05.087Z,40.26
2023-05-02T08:08:05.132Z,40.32
2023-05-02T08:09:05.143Z,40.53
2023-05-02T08:10:05.185Z,40.58
2023-05-02T08:11:05.215Z,40.56
2023-05-02T08:12:05.256Z,40.66
2023-05-02T08:13:05.298Z,40.89
2023-05-02T08:14:05.244Z,40.90
2023-05-02T08:15:05.255Z,40.87
2023-05-02T08:16:05.274Z,41.11
2023-05-02T08:17:05.265Z,41.07
2023-05-02T08:18:05.348Z,41.08
2023-05-02T08:19:05.270Z,41.12
2023-05-02T08:20:05.258Z,41.24
2023-05-02T08:21:05.297Z,41.31
2023-05-02T08:22:05.294Z,41.46
2023-05-02T08:23:05.296Z,41.41
2023-05-02T08:24:05.293Z,41.46
2023-05-02T08:25:05.301Z,41.49
2023-05-02T08:26:05.352Z,41.52
2023-05-02T08:27:05.414Z,41.59
2023-05-02T08:28:05.463Z,41.65
2023-05-02T08:29:05.492Z,41.62
2023-05-02T08:30:05.718Z,41.77
2023-05-02T08:31:05.666Z,41.75
2023-05-02T08:32:05.903Z,41.93
2023-05-02T08:33:06.219Z,41.86
2023-05-02T08:34:05.816Z,41.97
2023-05-02T08:35:05.880Z,41.93
2023-05-02T08:36:05.900Z,41.96
2023-05-02T08:37:05.994Z,42.10
2023-05-02T08:38:06.725Z,42.20
2023-05-02T08:39:06.121Z,42.17
2023-05-02T08:40:06.161Z,42.15
2023-05-02T08:41:06.197Z,42.56
2023-05-02T08:42:06.273Z,42.62
2023-05-02T08:43:06.669Z,41.64
2023-05-02T08:44:06.363Z,41.48
2023-05-02T08:45:06.403Z,42.00
2023-05-02T08:46:06.462Z,42.15
2023-05-02T08:47:06.536Z,42.00
2023-05-02T08:48:06.622Z,42.28
2023-05-02T08:49:06.627Z,42.08
2023-05-02T08:50:06.669Z,41.98
2023-05-02T08:51:06.731Z,41.64
2023-05-02T08:52:06.796Z,41.37
2023-05-02T08:53:06.826Z,42.10
2023-05-02T08:54:06.881Z,41.96
2023-05-02T08:55:06.921Z,41.86
2023-05-02T08:56:06.938Z,41.77
2023-05-02T08:57:07.042Z,42.32
2023-05-02T08:58:07.043Z,42.42
2023-05-02T08:59:07.068Z,42.41
2023-05-02T09:00:07.104Z,42.45
2023-05-02T09:01:07.126Z,41.81
2023-05-02T09:02:07.178Z,41.09
2023-05-02T09:03:07.780Z,40.58
2023-05-02T09:04:07.347Z,40.50
2023-05-02T09:05:07.315Z,40.43
2023-05-02T09:06:07.577Z,40.57
2023-05-02T09:07:07.451Z,40.30
2023-05-02T09:08:07.504Z,40.19
2023-05-02T09:09:07.559Z,40.11
2023-05-02T09:10:07.605Z,40.36
2023-05-02T09:11:07.662Z,40.50
2023-05-02T09:12:07.689Z,40.48
2023-05-02T09:13:07.751Z,40.48
2023-05-02T09:14:07.754Z,40.84
2023-05-02T09:15:07.783Z,40.92
2023-05-02T09:16:07.957Z,41.01
2023-05-02T09:17:07.886Z,40.77
2023-05-02T09:18:07.913Z,40.75
2023-05-02T09:19:07.859Z,40.83
2023-05-02T09:20:07.861Z,40.80
2023-05-02T09:21:07.850Z,40.74
2023-05-02T09:22:07.879Z,40.73
2023-05-02T09:23:07.883Z,40.67
2023-05-02T09:24:07.893Z,40.75
2023-05-02T09:25:07.903Z,41.06
2023-05-02T09:26:07.921Z,40.80
2023-05-02T09:27:08.014Z,40.84
2023-05-02T09:28:08.064Z,40.90
2023-05-02T09:29:08.069Z,41.03
2023-05-02T09:30:08.089Z,41.02
2023-05-02T09:31:08.150Z,40.86
2023-05-02T09:32:08.190Z,40.93
2023-05-02T09:33:08.211Z,40.80
2023-05-02T09:34:08.122Z,40.84
2023-05-02T09:35:08.202Z,40.66
2023-05-02T09:36:08.135Z,40.81
2023-05-02T09:37:08.132Z,40.67
2023-05-02T09:38:08.186Z,40.62
2023-05-02T09:39:08.166Z,40.92
2023-05-02T09:40:08.168Z,40.66
2023-05-02T09:41:08.238Z,40.33
2023-05-02T09:42:08.240Z,40.17
2023-05-02T09:43:08.187Z,40.95
2023-05-02T09:44:08.194Z,40.57
2023-05-02T09:45:08.167Z,40.60
2023-05-02T09:46:08.304Z,40.27
2023-05-02T09:47:08.292Z,40.46
2023-05-02T09:48:08.759Z,41.20
2023-05-02T09:49:08.395Z,42.08
2023-05-02T09:50:08.486Z,41.75
2023-05-02T09:51:08.519Z,41.84
2023-05-02T09:52:08.580Z,41.77
2023-05-02T09:53:08.710Z,41.82
2023-05-02T09:54:08.663Z,42.36
2023-05-02T09:55:08.717Z,42.14
2023-05-02T09:56:08.745Z,42.28
2023-05-02T09:57:08.863Z,41.90
2023-05-02T09:58:08.802Z,41.73
2023-05-02T09:59:08.843Z,41.80
2023-05-02T10:00:08.893Z,41.50
2023-05-02T10:01:08.912Z,41.51
2023-05-02T10:02:08.934Z,41.65
2023-05-02T10:03:09.256Z,41.29
2023-05-02T10:04:08.973Z,41.10
2023-05-02T10:05:08.956Z,40.81
2023-05-02T10:06:08.997Z,41.19
2023-05-02T10:07:08.967Z,40.76
2023-05-02T10:08:09.191Z,41.17
2023-05-02T10:09:09.018Z,41.04
2023-05-02T10:10:09.033Z,41.30
2023-05-02T10:11:09.138Z,41.41
2023-05-02T10:12:09.049Z,41.07
2023-05-02T10:13:09.178Z,41.43
2023-05-02T10:14:09.098Z,41.35
2023-05-02T10:15:09.080Z,41.60
2023-05-02T10:16:09.131Z,41.78
2023-05-02T10:17:09.072Z,41.86
2023-05-02T10:18:09.129Z,41.91
2023-05-02T10:19:09.094Z,41.92
2023-05-02T10:20:09.106Z,42.09
2023-05-02T10:21:09.073Z,42.11
2023-05-02T10:22:09.097Z,42.00
2023-05-02T10:23:09.093Z,42.01
2023-05-02T10:24:09.126Z,41.87
2023-05-02T10:25:09.063Z,41.61
2023-05-02T10:26:09.103Z,41.54
2023-05-02T10:27:09.044Z,41.93
2023-05-02T10:28:09.031Z,42.13
2023-05-02T10:29:09.020Z,42.09
2023-05-02T10:30:09.042Z,42.12
2023-05-02T10:31:09.093Z,41.92
2023-05-02T10:32:09.037Z,42.09
2023-05-02T10:33:09.114Z,42.14
2023-05-02T10:34:09.108Z,41.93
2023-05-02T10:35:09.144Z,41.80
2023-05-02T10:36:09.169Z,41.64
2023-05-02T10:37:09.236Z,41.52
2023-05-02T10:38:09.241Z,41.08
2023-05-02T10:39:09.303Z,41.34
2023-05-02T10:40:09.317Z,41.14
2023-05-02T10:41:09.352Z,41.23
2023-05-02T10:42:09.422Z,41.21
2023-05-02T10:43:09.430Z,41.18
2023-05-02T10:44:09.486Z,41.66
2023-05-02T10:45:09.543Z,41.40
2023-05-02T10:46:09.582Z,41.76
2023-05-02T10:47:09.634Z,42.02
2023-05-02T10:48:09.771Z,42.35
2023-05-02T10:49:09.746Z,42.76
2023-05-02T10:50:09.836Z,42.80
2023-05-02T10:51:09.858Z,42.87
2023-05-02T10:52:09.918Z,43.06
2023-05-02T10:53:09.925Z,43.00
2023-05-02T10:54:09.990Z,43.47
2023-05-02T10:55:10.045Z,43.55
2023-05-02T10:56:10.069Z,43.37
2023-05-02T10:57:10.092Z,43.44
2023-05-02T10:58:10.228Z,43.34
2023-05-02T10:59:10.149Z,43.18
2023-05-02T11:00:10.155Z,43.32
2023-05-02T11:01:10.221Z,43.44
2023-05-02T11:02:10.234Z,43.56
2023-05-02T11:03:10.397Z,43.34
2023-05-02T11:04:10.263Z,43.31
2023-05-02T11:05:10.336Z,43.51
2023-05-02T11:06:10.435Z,43.54
2023-05-02T11:07:10.337Z,43.59
2023-05-02T11:08:10.415Z,43.86
2023-05-02T11:09:10.425Z,43.53
2023-05-02T11:10:10.522Z,43.59
2023-05-02T11:11:10.485Z,43.67
2023-05-02T11:12:10.467Z,43.99
2023-05-02T11:13:10.499Z,43.80
2023-05-02T11:14:10.550Z,43.90
2023-05-02T11:15:11.652Z,43.85
2023-05-02T11:16:10.562Z,43.95
2023-05-02T11:17:10.564Z,44.02
2023-05-02T11:18:10.745Z,44.18
2023-05-02T11:19:10.608Z,43.90
2023-05-02T11:20:10.586Z,43.94
2023-05-02T11:21:10.633Z,44.06
2023-05-02T11:22:10.587Z,44.18
2023-05-02T11:23:10.742Z,44.23
2023-05-02T11:24:10.602Z,44.22
2023-05-02T11:25:10.615Z,44.45
2023-05-02T11:26:10.627Z,44.64
2023-05-02T11:27:10.659Z,44.44
2023-05-02T11:28:10.679Z,44.46
2023-05-02T11:29:10.671Z,44.68
2023-05-02T11:30:10.636Z,44.80
2023-05-02T11:31:10.622Z,44.72
2023-05-02T11:32:10.641Z,45.16
2023-05-02T11:33:10.666Z,45.02
2023-05-02T11:34:10.729Z,45.06
2023-05-02T11:35:10.650Z,45.50
2023-05-02T11:36:10.854Z,45.26
2023-05-02T11:37:10.648Z,44.53
2023-05-02T11:38:10.693Z,44.24
2023-05-02T11:39:10.703Z,43.40
2023-05-02T11:40:10.687Z,41.49
2023-05-02T11:41:10.691Z,41.70
2023-05-02T11:42:10.764Z,41.59
2023-05-02T11:43:10.767Z,41.70
2023-05-02T11:44:11.257Z,42.37
2023-05-02T11:45:10.848Z,42.81
2023-05-02T11:46:10.994Z,42.69
2023-05-02T11:47:10.979Z,42.70
2023-05-02T11:48:11.076Z,42.72
2023-05-02T11:49:12.639Z,42.50
2023-05-02T11:50:11.164Z,42.29
2023-05-02T11:51:11.203Z,42.26
2023-05-02T11:52:11.227Z,42.18
2023-05-02T11:53:11.207Z,42.15
2023-05-02T11:54:11.215Z,42.04
2023-05-02T11:55:11.832Z,41.95
2023-05-02T11:56:11.217Z,41.94
2023-05-02T11:57:11.214Z,41.98
2023-05-02T11:58:11.217Z,42.03
2023-05-02T11:59:11.251Z,42.04
2023-05-02T12:00:11.298Z,42.21
2023-05-02T12:01:11.234Z,42.18
2023-05-02T12:02:11.318Z,42.16
2023-05-02T12:03:11.378Z,42.19
2023-05-02T12:04:11.346Z,41.93
2023-05-02T12:05:11.417Z,41.93
2023-05-02T12:06:11.873Z,41.90
2023-05-02T12:07:12.249Z,41.90
2023-05-02T12:08:11.462Z,41.83
2023-05-02T12:09:11.505Z,41.84
2023-05-02T12:10:11.612Z,41.93
2023-05-02T12:11:11.589Z,41.81
2023-05-02T12:12:11.673Z,41.73
2023-05-02T12:13:11.952Z,41.61
2023-05-02T12:14:11.751Z,41.41
2023-05-02T12:15:11.803Z,41.34
2023-05-02T12:16:11.880Z,41.32
2023-05-02T12:17:11.923Z,41.37
2023-05-02T12:18:12.103Z,41.38
2023-05-02T12:19:12.055Z,41.35
2023-05-02T12:20:12.142Z,41.44
2023-05-02T12:21:12.129Z,41.38
2023-05-02T12:22:12.139Z,41.29
2023-05-02T12:23:12.180Z,41.30
2023-05-02T12:24:12.276Z,41.37
2023-05-02T12:25:12.269Z,41.26
2023-05-02T12:26:12.327Z,41.26
2023-05-02T12:27:12.355Z,41.24
2023-05-02T12:28:12.405Z,41.18
2023-05-02T12:29:12.435Z,41.26
2023-05-02T12:30:12.453Z,41.22
2023-05-02T12:31:12.549Z,41.20
2023-05-02T12:32:12.564Z,41.16
2023-05-02T12:33:12.597Z,41.16
2023-05-02T12:34:12.658Z,41.11
2023-05-02T12:35:12.728Z,41.09
2023-05-02T12:36:12.759Z,41.09
2023-05-02T12:37:12.763Z,41.10
2023-05-02T12:38:12.800Z,41.11
2023-05-02T12:39:13.270Z,41.01
2023-05-02T12:40:12.787Z,40.92
2023-05-02T12:41:12.792Z,40.92
2023-05-02T12:42:12.756Z,40.91
2023-05-02T12:43:12.756Z,40.87
2023-05-02T12:44:12.771Z,40.78
2023-05-02T12:45:12.736Z,40.62
2023-05-02T12:46:12.766Z,40.46
2023-05-02T12:47:12.851Z,40.46
2023-05-02T12:48:12.763Z,40.51
2023-05-02T12:49:12.753Z,40.54
2023-05-02T12:50:12.707Z,40.50
2023-05-02T12:51:12.711Z,40.35
2023-05-02T12:52:12.724Z,40.31